sensor_id;sensor_type;location;lat;lon;timestamp;P1;durP1;ratioP1;P2;durP2;ratioP2
23494;SDS011;26107;50.832;2.950;2024-03-08T00:13:55;20.48;;;11.80;;
23494;SDS011;26107;50.832;2.950;2024-03-08T00:28:59;19.65;;;11.80;;
23494;SDS011;26107;50.832;2.950;2024-03-08T00:43:59;18.35;;;11.60;;
23494;SDS011;26107;50.832;2.950;2024-03-08T00:59:04;20.45;;;11.13;;
23494;SDS011;26107;50.832;2.950;2024-03-08T01:14:06;19.02;;;10.60;;
23494;SDS011;26107;50.832;2.950;2024-03-08T01:29:09;21.52;;;12.00;;
23494;SDS011;26107;50.832;2.950;2024-03-08T01:44:12;19.50;;;11.82;;
23494;SDS011;26107;50.832;2.950;2024-03-08T01:59:17;19.85;;;11.60;;
23494;SDS011;26107;50.832;2.950;2024-03-08T02:14:18;19.30;;;10.93;;
23494;SDS011;26107;50.832;2.950;2024-03-08T02:29:18;20.25;;;10.75;;
23494;SDS011;26107;50.832;2.950;2024-03-08T02:44:23;23.00;;;11.18;;
23494;SDS011;26107;50.832;2.950;2024-03-08T02:59:24;20.20;;;10.57;;
23494;SDS011;26107;50.832;2.950;2024-03-08T03:14:27;23.02;;;12.82;;
23494;SDS011;26107;50.832;2.950;2024-03-08T03:44:30;21.15;;;11.60;;
23494;SDS011;26107;50.832;2.950;2024-03-08T04:29:32;28.13;;;13.13;;
23494;SDS011;26107;50.832;2.950;2024-03-08T04:44:34;25.00;;;12.82;;
23494;SDS011;26107;50.832;2.950;2024-03-08T04:59:36;27.30;;;13.55;;
23494;SDS011;26107;50.832;2.950;2024-03-08T05:14:39;28.63;;;15.20;;
23494;SDS011;26107;50.832;2.950;2024-03-08T05:29:42;24.92;;;13.88;;
23494;SDS011;26107;50.832;2.950;2024-03-08T05:59:44;25.33;;;14.98;;
23494;SDS011;26107;50.832;2.950;2024-03-08T06:14:48;28.88;;;14.65;;
23494;SDS011;26107;50.832;2.950;2024-03-08T06:29:51;23.30;;;13.80;;
23494;SDS011;26107;50.832;2.950;2024-03-08T07:00:00;24.23;;;14.10;;
23494;SDS011;26107;50.832;2.950;2024-03-08T07:15:05;22.35;;;15.05;;
23494;SDS011;26107;50.832;2.950;2024-03-08T07:30:06;26.20;;;14.73;;
23494;SDS011;26107;50.832;2.950;2024-03-08T07:45:10;23.50;;;13.77;;
23494;SDS011;26107;50.832;2.950;2024-03-08T08:00:13;25.17;;;14.07;;
23494;SDS011;26107;50.832;2.950;2024-03-08T08:15:20;25.58;;;14.43;;
23494;SDS011;26107;50.832;2.950;2024-03-08T08:30:23;29.27;;;14.73;;
23494;SDS011;26107;50.832;2.950;2024-03-08T08:45:28;26.70;;;14.75;;
23494;SDS011;26107;50.832;2.950;2024-03-08T09:00:31;26.17;;;14.75;;
23494;SDS011;26107;50.832;2.950;2024-03-08T09:15:37;24.40;;;14.55;;
23494;SDS011;26107;50.832;2.950;2024-03-08T09:30:40;25.58;;;14.10;;
23494;SDS011;26107;50.832;2.950;2024-03-08T09:45:42;25.48;;;14.70;;
23494;SDS011;26107;50.832;2.950;2024-03-08T10:00:44;26.80;;;14.25;;
23494;SDS011;26107;50.832;2.950;2024-03-08T10:15:48;28.30;;;14.13;;
23494;SDS011;26107;50.832;2.950;2024-03-08T10:30:51;24.55;;;13.75;;
23494;SDS011;26107;50.832;2.950;2024-03-08T10:45:56;23.58;;;14.25;;
23494;SDS011;26107;50.832;2.950;2024-03-08T11:01:08;22.33;;;13.57;;
23494;SDS011;26107;50.832;2.950;2024-03-08T11:16:10;23.02;;;12.65;;
23494;SDS011;26107;50.832;2.950;2024-03-08T11:46:15;23.48;;;13.90;;
23494;SDS011;26107;50.832;2.950;2024-03-08T12:01:19;21.42;;;13.02;;
23494;SDS011;26107;50.832;2.950;2024-03-08T12:16:20;20.83;;;12.63;;
23494;SDS011;26107;50.832;2.950;2024-03-08T12:31:23;22.30;;;12.43;;
23494;SDS011;26107;50.832;2.950;2024-03-08T12:46:25;25.00;;;12.80;;
23494;SDS011;26107;50.832;2.950;2024-03-08T13:01:26;19.00;;;12.27;;
23494;SDS011;26107;50.832;2.950;2024-03-08T13:16:33;18.70;;;11.40;;
23494;SDS011;26107;50.832;2.950;2024-03-08T13:31:34;17.40;;;12.07;;
23494;SDS011;26107;50.832;2.950;2024-03-08T14:01:40;20.52;;;11.13;;
23494;SDS011;26107;50.832;2.950;2024-03-08T14:16:43;14.73;;;10.00;;
23494;SDS011;26107;50.832;2.950;2024-03-08T14:31:44;12.43;;;9.25;;
23494;SDS011;26107;50.832;2.950;2024-03-08T14:46:45;11.95;;;8.90;;
23494;SDS011;26107;50.832;2.950;2024-03-08T15:01:46;15.80;;;10.57;;
23494;SDS011;26107;50.832;2.950;2024-03-08T15:16:47;11.95;;;9.55;;
23494;SDS011;26107;50.832;2.950;2024-03-08T15:31:51;14.93;;;10.23;;
23494;SDS011;26107;50.832;2.950;2024-03-08T15:46:54;14.43;;;10.98;;
23494;SDS011;26107;50.832;2.950;2024-03-08T16:01:57;16.00;;;10.27;;
23494;SDS011;26107;50.832;2.950;2024-03-08T16:16:57;17.05;;;10.10;;
23494;SDS011;26107;50.832;2.950;2024-03-08T16:31:58;15.60;;;9.80;;
23494;SDS011;26107;50.832;2.950;2024-03-08T17:02:00;14.30;;;8.73;;
23494;SDS011;26107;50.832;2.950;2024-03-08T17:17:01;16.65;;;11.50;;
23494;SDS011;26107;50.832;2.950;2024-03-08T17:32:02;16.13;;;10.80;;
23494;SDS011;26107;50.832;2.950;2024-03-08T17:47:07;15.70;;;9.65;;
23494;SDS011;26107;50.832;2.950;2024-03-08T18:02:10;17.50;;;9.93;;
23494;SDS011;26107;50.832;2.950;2024-03-08T18:17:13;19.58;;;11.02;;
23494;SDS011;26107;50.832;2.950;2024-03-08T18:32:16;16.15;;;10.13;;
23494;SDS011;26107;50.832;2.950;2024-03-08T18:47:18;16.33;;;10.35;;
23494;SDS011;26107;50.832;2.950;2024-03-08T19:02:21;19.85;;;10.25;;
23494;SDS011;26107;50.832;2.950;2024-03-08T19:17:22;14.90;;;9.82;;
23494;SDS011;26107;50.832;2.950;2024-03-08T19:32:23;15.45;;;10.00;;
23494;SDS011;26107;50.832;2.950;2024-03-08T19:47:27;19.20;;;11.00;;
23494;SDS011;26107;50.832;2.950;2024-03-08T20:02:30;23.25;;;11.45;;
23494;SDS011;26107;50.832;2.950;2024-03-08T20:17:39;20.05;;;11.73;;
23494;SDS011;26107;50.832;2.950;2024-03-08T20:32:46;16.48;;;10.05;;
23494;SDS011;26107;50.832;2.950;2024-03-08T20:47:53;18.58;;;10.27;;
23494;SDS011;26107;50.832;2.950;2024-03-08T21:02:53;16.50;;;10.10;;
23494;SDS011;26107;50.832;2.950;2024-03-08T21:17:54;16.40;;;10.48;;
23494;SDS011;26107;50.832;2.950;2024-03-08T21:32:55;20.88;;;10.40;;
23494;SDS011;26107;50.832;2.950;2024-03-08T21:47:58;16.13;;;10.20;;
23494;SDS011;26107;50.832;2.950;2024-03-08T22:03:05;15.90;;;10.30;;
23494;SDS011;26107;50.832;2.950;2024-03-08T22:18:06;13.27;;;8.93;;
23494;SDS011;26107;50.832;2.950;2024-03-08T22:33:09;14.38;;;9.23;;
23494;SDS011;26107;50.832;2.950;2024-03-08T22:48:12;16.08;;;9.93;;
23494;SDS011;26107;50.832;2.950;2024-03-08T23:03:15;14.35;;;9.80;;
23494;SDS011;26107;50.832;2.950;2024-03-08T23:18:17;12.52;;;8.90;;
23494;SDS011;26107;50.832;2.950;2024-03-08T23:33:20;13.68;;;9.57;;
23494;SDS011;26107;50.832;2.950;2024-03-08T23:48:21;16.35;;;9.25;;
